WALL/BPN METAR and TAF weather

Enter ICAO airport designator
Station Type Date Time Source
WALL METAR 2021/08/05 05:30 UTC NOAA

WALL 050530Z 23005KT 9999 FEW020 30/26 Q1010


Station Type Date Time Source
WALL Decoded METAR 2021/08/05 05:30 UTC NOAA

Station name not available
Aug 05, 2021 - 01:30 AM EDT / 2021.08.05 0530 UTC
Wind: from the SW (230 degrees) at 6 MPH (5 KT):0
Visibility: greater than 7 mile(s):0
Sky conditions: mostly clear
Temperature: 86 F (30 C)
Heat index: 99.3 F (37.4 C):1
Dew Point: 78 F (26 C)
Relative Humidity: 79%
Pressure (altimeter): 29.83 in. Hg (1010 hPa)
ob: WALL 050530Z 23005KT 9999 FEW020 30/26 Q1010
cycle: 5

Station Type Date Time Source
WALL TAF 2021/08/05 06:00 UTC NOAA

TAF WALL 050500Z 0506/0612 24007KT 9999 FEW020

Example: see airport list